sensor_id;sensor_type;location;lat;lon;timestamp;temperature;humidity
14727;DHT22;7454;51.256;8.176;2022-12-10T00:01:39;-1.30;75.30
14727;DHT22;7454;51.256;8.176;2022-12-10T00:04:05;-1.30;75.40
14727;DHT22;7454;51.256;8.176;2022-12-10T00:06:31;-1.30;75.40
14727;DHT22;7454;51.256;8.176;2022-12-10T00:08:59;-1.30;75.30
14727;DHT22;7454;51.256;8.176;2022-12-10T00:11:25;-1.40;75.30
14727;DHT22;7454;51.256;8.176;2022-12-10T00:13:52;-1.40;75.30
14727;DHT22;7454;51.256;8.176;2022-12-10T00:16:18;-1.40;75.20
14727;DHT22;7454;51.256;8.176;2022-12-10T00:18:45;-1.40;75.30
14727;DHT22;7454;51.256;8.176;2022-12-10T00:21:13;-1.40;75.20
14727;DHT22;7454;51.256;8.176;2022-12-10T00:23:40;-1.50;75.20
14727;DHT22;7454;51.256;8.176;2022-12-10T00:26:08;-1.50;75.20
14727;DHT22;7454;51.256;8.176;2022-12-10T00:28:38;-1.50;75.20
14727;DHT22;7454;51.256;8.176;2022-12-10T00:31:05;-1.50;75.10
14727;DHT22;7454;51.256;8.176;2022-12-10T00:33:32;-1.60;75.20
14727;DHT22;7454;51.256;8.176;2022-12-10T00:36:01;-1.60;75.00
14727;DHT22;7454;51.256;8.176;2022-12-10T00:38:28;-1.60;75.20
14727;DHT22;7454;51.256;8.176;2022-12-10T00:40:54;-1.60;75.20
14727;DHT22;7454;51.256;8.176;2022-12-10T00:43:19;-1.60;75.20
14727;DHT22;7454;51.256;8.176;2022-12-10T00:45:45;-1.60;75.20
14727;DHT22;7454;51.256;8.176;2022-12-10T00:48:11;-1.70;75.20
14727;DHT22;7454;51.256;8.176;2022-12-10T00:50:37;-1.70;75.30
14727;DHT22;7454;51.256;8.176;2022-12-10T00:53:02;-1.70;75.40
14727;DHT22;7454;51.256;8.176;2022-12-10T00:55:28;-1.70;75.50
14727;DHT22;7454;51.256;8.176;2022-12-10T00:57:53;-1.70;75.60
14727;DHT22;7454;51.256;8.176;2022-12-10T01:00:19;-1.70;75.50
14727;DHT22;7454;51.256;8.176;2022-12-10T01:02:45;-1.70;75.60
14727;DHT22;7454;51.256;8.176;2022-12-10T01:05:10;-1.80;75.60
14727;DHT22;7454;51.256;8.176;2022-12-10T01:07:36;-1.80;75.60
14727;DHT22;7454;51.256;8.176;2022-12-10T01:10:02;-1.80;75.70
14727;DHT22;7454;51.256;8.176;2022-12-10T01:12:28;-1.80;75.70
14727;DHT22;7454;51.256;8.176;2022-12-10T01:14:53;-1.80;75.80
14727;DHT22;7454;51.256;8.176;2022-12-10T01:17:19;-1.80;75.90
14727;DHT22;7454;51.256;8.176;2022-12-10T01:19:46;-1.80;75.90
14727;DHT22;7454;51.256;8.176;2022-12-10T01:22:12;-1.70;75.80
14727;DHT22;7454;51.256;8.176;2022-12-10T01:24:38;-1.70;75.70
14727;DHT22;7454;51.256;8.176;2022-12-10T01:27:04;-1.70;75.60
14727;DHT22;7454;51.256;8.176;2022-12-10T01:29:30;-1.70;75.70
14727;DHT22;7454;51.256;8.176;2022-12-10T01:31:56;-1.70;75.80
14727;DHT22;7454;51.256;8.176;2022-12-10T01:34:22;-1.70;75.90
14727;DHT22;7454;51.256;8.176;2022-12-10T01:36:50;-1.70;75.80
14727;DHT22;7454;51.256;8.176;2022-12-10T01:39:17;-1.70;75.90
14727;DHT22;7454;51.256;8.176;2022-12-10T01:41:54;-1.70;76.00
14727;DHT22;7454;51.256;8.176;2022-12-10T01:46:47;-1.70;75.80
14727;DHT22;7454;51.256;8.176;2022-12-10T01:49:22;-1.80;75.80
14727;DHT22;7454;51.256;8.176;2022-12-10T01:51:51;-1.80;75.70
14727;DHT22;7454;51.256;8.176;2022-12-10T01:54:19;-1.80;75.70
14727;DHT22;7454;51.256;8.176;2022-12-10T01:56:47;-1.80;75.60
14727;DHT22;7454;51.256;8.176;2022-12-10T01:59:16;-1.80;75.60
14727;DHT22;7454;51.256;8.176;2022-12-10T02:13:40;-1.90;75.10
14727;DHT22;7454;51.256;8.176;2022-12-10T02:16:08;-1.90;75.10
14727;DHT22;7454;51.256;8.176;2022-12-10T02:18:42;-1.90;75.10
14727;DHT22;7454;51.256;8.176;2022-12-10T02:21:13;-2.00;75.00
14727;DHT22;7454;51.256;8.176;2022-12-10T02:23:43;-2.00;75.00
14727;DHT22;7454;51.256;8.176;2022-12-10T02:26:13;-2.00;75.00
14727;DHT22;7454;51.256;8.176;2022-12-10T02:29:43;-2.00;75.00
14727;DHT22;7454;51.256;8.176;2022-12-10T02:31:38;-2.00;75.00
14727;DHT22;7454;51.256;8.176;2022-12-10T02:34:06;-2.00;75.10
14727;DHT22;7454;51.256;8.176;2022-12-10T02:36:33;-2.00;75.10
14727;DHT22;7454;51.256;8.176;2022-12-10T02:39:02;-2.00;75.20
14727;DHT22;7454;51.256;8.176;2022-12-10T02:41:30;-2.00;75.10
14727;DHT22;7454;51.256;8.176;2022-12-10T02:44:00;-2.00;75.00
14727;DHT22;7454;51.256;8.176;2022-12-10T02:46:29;-2.00;75.00
14727;DHT22;7454;51.256;8.176;2022-12-10T02:48:58;-2.00;75.00
14727;DHT22;7454;51.256;8.176;2022-12-10T02:51:25;-1.90;74.90
14727;DHT22;7454;51.256;8.176;2022-12-10T02:53:58;-1.90;75.00
14727;DHT22;7454;51.256;8.176;2022-12-10T02:59:04;-2.00;74.80
14727;DHT22;7454;51.256;8.176;2022-12-10T03:01:59;-2.00;74.80
14727;DHT22;7454;51.256;8.176;2022-12-10T03:04:42;-2.10;74.90
14727;DHT22;7454;51.256;8.176;2022-12-10T03:07:10;-2.10;75.00
14727;DHT22;7454;51.256;8.176;2022-12-10T03:09:48;-2.10;75.00
14727;DHT22;7454;51.256;8.176;2022-12-10T03:12:35;-2.20;75.00
14727;DHT22;7454;51.256;8.176;2022-12-10T03:15:05;-2.20;74.90
14727;DHT22;7454;51.256;8.176;2022-12-10T03:17:33;-2.20;74.90
14727;DHT22;7454;51.256;8.176;2022-12-10T03:19:59;-2.20;74.80
14727;DHT22;7454;51.256;8.176;2022-12-10T03:22:26;-2.20;74.90
14727;DHT22;7454;51.256;8.176;2022-12-10T03:24:52;-2.30;75.00
14727;DHT22;7454;51.256;8.176;2022-12-10T03:27:18;-2.20;75.00
14727;DHT22;7454;51.256;8.176;2022-12-10T03:29:46;-2.30;74.80
14727;DHT22;7454;51.256;8.176;2022-12-10T03:32:13;-2.30;74.80
14727;DHT22;7454;51.256;8.176;2022-12-10T03:34:40;-2.40;74.70
14727;DHT22;7454;51.256;8.176;2022-12-10T03:37:06;-2.40;74.70
14727;DHT22;7454;51.256;8.176;2022-12-10T03:39:32;-2.40;74.90
14727;DHT22;7454;51.256;8.176;2022-12-10T03:41:59;-2.40;74.70
14727;DHT22;7454;51.256;8.176;2022-12-10T03:44:32;-2.40;74.60
14727;DHT22;7454;51.256;8.176;2022-12-10T03:46:59;-2.50;74.50
14727;DHT22;7454;51.256;8.176;2022-12-10T03:49:25;-2.50;74.70
14727;DHT22;7454;51.256;8.176;2022-12-10T03:51:51;-2.60;74.80
14727;DHT22;7454;51.256;8.176;2022-12-10T03:54:18;-2.50;74.80
14727;DHT22;7454;51.256;8.176;2022-12-10T03:56:44;-2.60;74.80
14727;DHT22;7454;51.256;8.176;2022-12-10T03:59:10;-2.60;74.80
14727;DHT22;7454;51.256;8.176;2022-12-10T04:01:35;-2.70;74.80
14727;DHT22;7454;51.256;8.176;2022-12-10T04:04:02;-2.70;74.80
14727;DHT22;7454;51.256;8.176;2022-12-10T04:06:28;-2.60;74.90
14727;DHT22;7454;51.256;8.176;2022-12-10T04:08:54;-2.60;74.80
14727;DHT22;7454;51.256;8.176;2022-12-10T04:11:19;-2.60;74.90
14727;DHT22;7454;51.256;8.176;2022-12-10T04:13:45;-2.60;74.90
14727;DHT22;7454;51.256;8.176;2022-12-10T04:16:30;-2.60;74.90
14727;DHT22;7454;51.256;8.176;2022-12-10T04:18:59;-2.60;74.90
14727;DHT22;7454;51.256;8.176;2022-12-10T04:21:26;-2.60;74.80
14727;DHT22;7454;51.256;8.176;2022-12-10T04:24:12;-2.60;74.80
14727;DHT22;7454;51.256;8.176;2022-12-10T04:26:57;-2.60;74.90
14727;DHT22;7454;51.256;8.176;2022-12-10T04:29:25;-2.60;74.90
14727;DHT22;7454;51.256;8.176;2022-12-10T04:31:52;-2.60;74.90
14727;DHT22;7454;51.256;8.176;2022-12-10T04:34:18;-2.60;75.00
14727;DHT22;7454;51.256;8.176;2022-12-10T04:36:44;-2.50;75.20
14727;DHT22;7454;51.256;8.176;2022-12-10T04:39:09;-2.50;75.00
14727;DHT22;7454;51.256;8.176;2022-12-10T04:41:39;-2.40;75.10
14727;DHT22;7454;51.256;8.176;2022-12-10T04:44:08;-2.40;75.10
14727;DHT22;7454;51.256;8.176;2022-12-10T04:46:34;-2.40;75.00
14727;DHT22;7454;51.256;8.176;2022-12-10T04:49:00;-2.40;75.10
14727;DHT22;7454;51.256;8.176;2022-12-10T04:51:26;-2.30;75.10
14727;DHT22;7454;51.256;8.176;2022-12-10T04:53:51;-2.40;75.00
14727;DHT22;7454;51.256;8.176;2022-12-10T04:56:17;-2.40;75.00
14727;DHT22;7454;51.256;8.176;2022-12-10T04:58:43;-2.40;75.00
14727;DHT22;7454;51.256;8.176;2022-12-10T05:01:09;-2.40;75.00
14727;DHT22;7454;51.256;8.176;2022-12-10T05:03:36;-2.40;75.10
14727;DHT22;7454;51.256;8.176;2022-12-10T05:06:02;-2.40;75.00
14727;DHT22;7454;51.256;8.176;2022-12-10T05:08:29;-2.30;75.10
14727;DHT22;7454;51.256;8.176;2022-12-10T05:10:55;-2.30;75.10
14727;DHT22;7454;51.256;8.176;2022-12-10T05:13:25;-2.30;75.20
14727;DHT22;7454;51.256;8.176;2022-12-10T05:15:50;-2.20;75.20
14727;DHT22;7454;51.256;8.176;2022-12-10T05:18:16;-2.20;75.20
14727;DHT22;7454;51.256;8.176;2022-12-10T05:20:42;-2.20;75.10
14727;DHT22;7454;51.256;8.176;2022-12-10T05:23:08;-2.20;75.10
14727;DHT22;7454;51.256;8.176;2022-12-10T05:28:24;-2.10;75.20
14727;DHT22;7454;51.256;8.176;2022-12-10T05:30:50;-2.00;75.20
14727;DHT22;7454;51.256;8.176;2022-12-10T05:33:15;-2.00;75.20
14727;DHT22;7454;51.256;8.176;2022-12-10T05:35:41;-2.00;75.20
14727;DHT22;7454;51.256;8.176;2022-12-10T05:38:06;-2.00;75.10
14727;DHT22;7454;51.256;8.176;2022-12-10T05:40:36;-2.00;75.20
14727;DHT22;7454;51.256;8.176;2022-12-10T05:43:02;-2.00;75.20
14727;DHT22;7454;51.256;8.176;2022-12-10T05:45:28;-2.10;75.20
14727;DHT22;7454;51.256;8.176;2022-12-10T05:47:53;-2.10;75.30
14727;DHT22;7454;51.256;8.176;2022-12-10T05:50:19;-2.00;75.40
14727;DHT22;7454;51.256;8.176;2022-12-10T05:52:44;-2.00;75.40
14727;DHT22;7454;51.256;8.176;2022-12-10T05:55:10;-2.00;75.40
14727;DHT22;7454;51.256;8.176;2022-12-10T05:57:36;-2.00;75.30
14727;DHT22;7454;51.256;8.176;2022-12-10T06:00:03;-1.90;75.40
14727;DHT22;7454;51.256;8.176;2022-12-10T06:02:37;-1.90;75.50
14727;DHT22;7454;51.256;8.176;2022-12-10T06:05:03;-1.90;75.50
14727;DHT22;7454;51.256;8.176;2022-12-10T06:07:29;-1.90;75.50
14727;DHT22;7454;51.256;8.176;2022-12-10T06:09:55;-1.80;75.50
14727;DHT22;7454;51.256;8.176;2022-12-10T06:12:20;-1.80;75.50
14727;DHT22;7454;51.256;8.176;2022-12-10T06:14:46;-1.80;75.50
14727;DHT22;7454;51.256;8.176;2022-12-10T06:17:12;-1.80;75.50
14727;DHT22;7454;51.256;8.176;2022-12-10T06:19:38;-1.80;75.50
14727;DHT22;7454;51.256;8.176;2022-12-10T06:22:03;-1.80;75.50
14727;DHT22;7454;51.256;8.176;2022-12-10T06:24:29;-1.80;75.50
14727;DHT22;7454;51.256;8.176;2022-12-10T06:26:55;-1.70;75.60
14727;DHT22;7454;51.256;8.176;2022-12-10T06:29:22;-1.70;75.50
14727;DHT22;7454;51.256;8.176;2022-12-10T06:31:47;-1.70;75.60
14727;DHT22;7454;51.256;8.176;2022-12-10T06:34:13;-1.70;75.60
14727;DHT22;7454;51.256;8.176;2022-12-10T06:36:39;-1.70;75.60
14727;DHT22;7454;51.256;8.176;2022-12-10T06:39:04;-1.70;75.60
14727;DHT22;7454;51.256;8.176;2022-12-10T06:41:30;-1.60;75.60
14727;DHT22;7454;51.256;8.176;2022-12-10T06:43:56;-1.70;75.40
14727;DHT22;7454;51.256;8.176;2022-12-10T06:46:24;-1.70;75.50
14727;DHT22;7454;51.256;8.176;2022-12-10T06:48:51;-1.70;75.60
14727;DHT22;7454;51.256;8.176;2022-12-10T06:51:16;-1.70;75.60
14727;DHT22;7454;51.256;8.176;2022-12-10T06:53:43;-1.60;75.70
14727;DHT22;7454;51.256;8.176;2022-12-10T06:56:16;-1.70;75.60
14727;DHT22;7454;51.256;8.176;2022-12-10T06:58:43;-1.70;75.60
14727;DHT22;7454;51.256;8.176;2022-12-10T07:01:10;-1.60;75.70
14727;DHT22;7454;51.256;8.176;2022-12-10T07:03:38;-1.60;75.60
14727;DHT22;7454;51.256;8.176;2022-12-10T07:06:06;-1.60;75.70
14727;DHT22;7454;51.256;8.176;2022-12-10T07:08:34;-1.60;75.70
14727;DHT22;7454;51.256;8.176;2022-12-10T07:11:03;-1.50;75.80
14727;DHT22;7454;51.256;8.176;2022-12-10T07:13:29;-1.50;75.70
14727;DHT22;7454;51.256;8.176;2022-12-10T07:15:55;-1.50;75.70
14727;DHT22;7454;51.256;8.176;2022-12-10T07:18:21;-1.50;75.70
14727;DHT22;7454;51.256;8.176;2022-12-10T07:20:46;-1.50;75.70
14727;DHT22;7454;51.256;8.176;2022-12-10T07:23:12;-1.50;75.70
14727;DHT22;7454;51.256;8.176;2022-12-10T07:25:37;-1.50;75.80
14727;DHT22;7454;51.256;8.176;2022-12-10T07:28:03;-1.50;75.80
14727;DHT22;7454;51.256;8.176;2022-12-10T07:30:29;-1.50;75.80
14727;DHT22;7454;51.256;8.176;2022-12-10T07:32:54;-1.40;75.90
14727;DHT22;7454;51.256;8.176;2022-12-10T07:35:20;-1.40;75.90
14727;DHT22;7454;51.256;8.176;2022-12-10T07:37:45;-1.40;75.90
14727;DHT22;7454;51.256;8.176;2022-12-10T07:40:11;-1.40;75.80
14727;DHT22;7454;51.256;8.176;2022-12-10T07:42:37;-1.40;75.90
14727;DHT22;7454;51.256;8.176;2022-12-10T07:45:02;-1.40;75.90
14727;DHT22;7454;51.256;8.176;2022-12-10T07:47:28;-1.30;75.90
14727;DHT22;7454;51.256;8.176;2022-12-10T07:49:54;-1.30;75.80
14727;DHT22;7454;51.256;8.176;2022-12-10T07:52:20;-1.30;75.90
14727;DHT22;7454;51.256;8.176;2022-12-10T07:54:45;-1.30;75.80
14727;DHT22;7454;51.256;8.176;2022-12-10T07:57:11;-1.30;75.90
14727;DHT22;7454;51.256;8.176;2022-12-10T07:59:36;-1.30;75.90
14727;DHT22;7454;51.256;8.176;2022-12-10T08:02:02;-1.40;75.90
14727;DHT22;7454;51.256;8.176;2022-12-10T08:04:28;-1.20;76.10
14727;DHT22;7454;51.256;8.176;2022-12-10T08:06:55;-1.20;76.00
14727;DHT22;7454;51.256;8.176;2022-12-10T08:09:22;-1.20;76.10
14727;DHT22;7454;51.256;8.176;2022-12-10T08:11:48;-1.10;76.00
14727;DHT22;7454;51.256;8.176;2022-12-10T08:14:14;-1.10;76.00
14727;DHT22;7454;51.256;8.176;2022-12-10T08:16:39;-1.20;76.00
14727;DHT22;7454;51.256;8.176;2022-12-10T08:19:05;-1.10;76.00
14727;DHT22;7454;51.256;8.176;2022-12-10T08:21:31;-1.10;76.10
14727;DHT22;7454;51.256;8.176;2022-12-10T08:23:57;-1.00;76.00
14727;DHT22;7454;51.256;8.176;2022-12-10T08:26:25;-1.00;76.00
14727;DHT22;7454;51.256;8.176;2022-12-10T08:28:53;-1.00;76.10
14727;DHT22;7454;51.256;8.176;2022-12-10T08:31:20;-0.90;76.20
14727;DHT22;7454;51.256;8.176;2022-12-10T08:33:46;-0.90;76.10
14727;DHT22;7454;51.256;8.176;2022-12-10T08:36:13;-0.90;76.10
14727;DHT22;7454;51.256;8.176;2022-12-10T08:38:40;-0.90;76.20
14727;DHT22;7454;51.256;8.176;2022-12-10T08:41:10;-0.90;76.10
14727;DHT22;7454;51.256;8.176;2022-12-10T08:43:40;-0.80;76.10
14727;DHT22;7454;51.256;8.176;2022-12-10T08:46:06;-0.80;76.10
14727;DHT22;7454;51.256;8.176;2022-12-10T08:48:33;-0.80;76.10
14727;DHT22;7454;51.256;8.176;2022-12-10T08:50:59;-0.80;76.00
14727;DHT22;7454;51.256;8.176;2022-12-10T08:53:24;-0.70;76.20
14727;DHT22;7454;51.256;8.176;2022-12-10T08:55:50;-0.80;76.00
14727;DHT22;7454;51.256;8.176;2022-12-10T08:58:17;-0.70;76.00
14727;DHT22;7454;51.256;8.176;2022-12-10T09:00:42;-0.70;76.00
14727;DHT22;7454;51.256;8.176;2022-12-10T09:03:08;-0.70;76.10
14727;DHT22;7454;51.256;8.176;2022-12-10T09:05:34;-0.70;76.00
14727;DHT22;7454;51.256;8.176;2022-12-10T09:08:00;-0.70;76.10
14727;DHT22;7454;51.256;8.176;2022-12-10T09:10:26;-0.70;75.90
14727;DHT22;7454;51.256;8.176;2022-12-10T09:12:52;-0.70;76.00
14727;DHT22;7454;51.256;8.176;2022-12-10T09:15:17;-0.70;76.10
14727;DHT22;7454;51.256;8.176;2022-12-10T09:17:43;-0.60;76.20
14727;DHT22;7454;51.256;8.176;2022-12-10T09:20:09;-0.50;76.20
14727;DHT22;7454;51.256;8.176;2022-12-10T09:22:34;-0.50;76.10
14727;DHT22;7454;51.256;8.176;2022-12-10T09:25:06;-0.50;76.20
14727;DHT22;7454;51.256;8.176;2022-12-10T09:27:35;-0.50;76.00
14727;DHT22;7454;51.256;8.176;2022-12-10T09:30:01;-0.50;76.10
14727;DHT22;7454;51.256;8.176;2022-12-10T09:32:28;-0.50;76.00
14727;DHT22;7454;51.256;8.176;2022-12-10T09:34:53;-0.40;76.20
14727;DHT22;7454;51.256;8.176;2022-12-10T09:37:19;-0.40;76.20
14727;DHT22;7454;51.256;8.176;2022-12-10T09:39:45;-0.40;76.20
14727;DHT22;7454;51.256;8.176;2022-12-10T09:48:00;-0.20;75.70
14727;DHT22;7454;51.256;8.176;2022-12-10T09:53:03;-0.30;75.70
14727;DHT22;7454;51.256;8.176;2022-12-10T09:55:37;-0.30;75.80
14727;DHT22;7454;51.256;8.176;2022-12-10T09:58:05;-0.40;75.90
14727;DHT22;7454;51.256;8.176;2022-12-10T10:00:39;-0.30;75.90
14727;DHT22;7454;51.256;8.176;2022-12-10T10:03:05;-0.30;75.80
14727;DHT22;7454;51.256;8.176;2022-12-10T10:08:13;-0.40;75.90
14727;DHT22;7454;51.256;8.176;2022-12-10T10:10:42;-0.40;75.90
14727;DHT22;7454;51.256;8.176;2022-12-10T10:13:11;-0.40;75.90
14727;DHT22;7454;51.256;8.176;2022-12-10T10:15:41;-0.40;76.10
14727;DHT22;7454;51.256;8.176;2022-12-10T10:18:54;-0.40;75.90
14727;DHT22;7454;51.256;8.176;2022-12-10T10:20:59;-0.40;76.00
14727;DHT22;7454;51.256;8.176;2022-12-10T10:23:25;-0.40;75.90
14727;DHT22;7454;51.256;8.176;2022-12-10T10:25:51;-0.40;76.00
14727;DHT22;7454;51.256;8.176;2022-12-10T10:28:18;-0.40;75.90
14727;DHT22;7454;51.256;8.176;2022-12-10T10:30:46;-0.40;76.00
14727;DHT22;7454;51.256;8.176;2022-12-10T10:33:13;-0.50;75.90
14727;DHT22;7454;51.256;8.176;2022-12-10T10:35:44;-0.50;76.00
14727;DHT22;7454;51.256;8.176;2022-12-10T10:38:16;-0.50;76.00
14727;DHT22;7454;51.256;8.176;2022-12-10T10:40:45;-0.50;75.90
14727;DHT22;7454;51.256;8.176;2022-12-10T10:43:14;-0.50;76.00
14727;DHT22;7454;51.256;8.176;2022-12-10T10:45:43;-0.50;76.00
14727;DHT22;7454;51.256;8.176;2022-12-10T10:48:18;-0.50;75.90
14727;DHT22;7454;51.256;8.176;2022-12-10T10:50:50;-0.40;76.00
14727;DHT22;7454;51.256;8.176;2022-12-10T10:53:35;-0.40;76.10
14727;DHT22;7454;51.256;8.176;2022-12-10T10:56:10;-0.40;75.80
14727;DHT22;7454;51.256;8.176;2022-12-10T11:01:26;-0.40;76.10
14727;DHT22;7454;51.256;8.176;2022-12-10T11:04:08;-0.30;76.20
14727;DHT22;7454;51.256;8.176;2022-12-10T11:06:37;-0.20;76.10
14727;DHT22;7454;51.256;8.176;2022-12-10T11:09:05;-0.20;76.00
14727;DHT22;7454;51.256;8.176;2022-12-10T11:11:35;-0.10;76.00
14727;DHT22;7454;51.256;8.176;2022-12-10T11:14:12;-0.10;75.90
14727;DHT22;7454;51.256;8.176;2022-12-10T11:16:38;-0.10;76.00
14727;DHT22;7454;51.256;8.176;2022-12-10T11:19:05;-0.10;75.80
14727;DHT22;7454;51.256;8.176;2022-12-10T11:21:34;-0.10;75.80
14727;DHT22;7454;51.256;8.176;2022-12-10T11:24:00;-0.10;76.00
14727;DHT22;7454;51.256;8.176;2022-12-10T11:34:52;-0.20;76.00
14727;DHT22;7454;51.256;8.176;2022-12-10T11:39:56;-0.20;76.00
14727;DHT22;7454;51.256;8.176;2022-12-10T11:42:34;-0.20;76.00
14727;DHT22;7454;51.256;8.176;2022-12-10T11:45:15;-0.10;75.90
14727;DHT22;7454;51.256;8.176;2022-12-10T11:47:57;-0.10;75.90
14727;DHT22;7454;51.256;8.176;2022-12-10T11:50:41;-0.20;76.00
14727;DHT22;7454;51.256;8.176;2022-12-10T11:56:26;-0.20;75.80
14727;DHT22;7454;51.256;8.176;2022-12-10T12:04:42;-0.20;75.90
14727;DHT22;7454;51.256;8.176;2022-12-10T12:09:54;-0.20;75.80
14727;DHT22;7454;51.256;8.176;2022-12-10T12:16:02;-0.10;76.00
14727;DHT22;7454;51.256;8.176;2022-12-10T12:18:40;0.00;75.80
14727;DHT22;7454;51.256;8.176;2022-12-10T12:21:11;-0.10;75.90
14727;DHT22;7454;51.256;8.176;2022-12-10T12:23:49;-0.10;76.00
14727;DHT22;7454;51.256;8.176;2022-12-10T12:28:57;-0.10;76.00
14727;DHT22;7454;51.256;8.176;2022-12-10T12:31:26;-0.10;75.90
14727;DHT22;7454;51.256;8.176;2022-12-10T12:34:10;-0.10;76.00
14727;DHT22;7454;51.256;8.176;2022-12-10T12:36:41;-0.10;75.90
14727;DHT22;7454;51.256;8.176;2022-12-10T12:39:13;-0.10;75.90
14727;DHT22;7454;51.256;8.176;2022-12-10T12:42:01;-0.10;75.90
14727;DHT22;7454;51.256;8.176;2022-12-10T12:47:19;0.10;76.10
14727;DHT22;7454;51.256;8.176;2022-12-10T12:49:47;0.00;75.80
14727;DHT22;7454;51.256;8.176;2022-12-10T12:54:50;-0.10;75.90
14727;DHT22;7454;51.256;8.176;2022-12-10T12:57:26;-0.10;76.00
14727;DHT22;7454;51.256;8.176;2022-12-10T13:00:03;-0.10;76.00
14727;DHT22;7454;51.256;8.176;2022-12-10T13:05:19;-0.10;76.10
14727;DHT22;7454;51.256;8.176;2022-12-10T13:13:36;-0.10;75.80
14727;DHT22;7454;51.256;8.176;2022-12-10T13:27:02;0.00;76.00
14727;DHT22;7454;51.256;8.176;2022-12-10T13:29:30;0.00;75.90
14727;DHT22;7454;51.256;8.176;2022-12-10T13:32:19;0.00;75.90
14727;DHT22;7454;51.256;8.176;2022-12-10T13:42:57;0.10;75.90
14727;DHT22;7454;51.256;8.176;2022-12-10T13:49:00;0.00;75.80
14727;DHT22;7454;51.256;8.176;2022-12-10T13:51:31;0.00;75.70
14727;DHT22;7454;51.256;8.176;2022-12-10T13:56:49;0.00;75.70
14727;DHT22;7454;51.256;8.176;2022-12-10T14:07:27;-0.10;75.90
14727;DHT22;7454;51.256;8.176;2022-12-10T14:09:53;-0.10;75.70
14727;DHT22;7454;51.256;8.176;2022-12-10T14:12:28;-0.10;75.80
14727;DHT22;7454;51.256;8.176;2022-12-10T14:14:59;-0.10;75.70
14727;DHT22;7454;51.256;8.176;2022-12-10T14:17:37;-0.10;75.70
14727;DHT22;7454;51.256;8.176;2022-12-10T14:20:05;-0.10;75.70
14727;DHT22;7454;51.256;8.176;2022-12-10T14:22:33;-0.10;75.80
14727;DHT22;7454;51.256;8.176;2022-12-10T14:25:01;-0.10;75.80
14727;DHT22;7454;51.256;8.176;2022-12-10T14:27:30;-0.10;75.90
14727;DHT22;7454;51.256;8.176;2022-12-10T14:30:00;-0.10;75.90
14727;DHT22;7454;51.256;8.176;2022-12-10T14:32:33;0.00;75.90
14727;DHT22;7454;51.256;8.176;2022-12-10T14:35:00;0.00;75.80
14727;DHT22;7454;51.256;8.176;2022-12-10T14:37:30;-0.10;75.70
14727;DHT22;7454;51.256;8.176;2022-12-10T14:39:57;-0.20;75.70
14727;DHT22;7454;51.256;8.176;2022-12-10T14:42:23;-0.10;75.70
14727;DHT22;7454;51.256;8.176;2022-12-10T14:44:51;-0.20;75.70
14727;DHT22;7454;51.256;8.176;2022-12-10T14:47:21;-0.20;75.70
14727;DHT22;7454;51.256;8.176;2022-12-10T14:49:49;-0.20;75.80
14727;DHT22;7454;51.256;8.176;2022-12-10T14:52:17;-0.10;75.90
14727;DHT22;7454;51.256;8.176;2022-12-10T14:54:45;-0.10;75.90
14727;DHT22;7454;51.256;8.176;2022-12-10T14:57:22;-0.20;75.80
14727;DHT22;7454;51.256;8.176;2022-12-10T14:59:49;-0.10;75.90
14727;DHT22;7454;51.256;8.176;2022-12-10T15:02:21;-0.10;75.90
14727;DHT22;7454;51.256;8.176;2022-12-10T15:04:55;0.00;75.90
14727;DHT22;7454;51.256;8.176;2022-12-10T15:07:32;0.00;75.80
14727;DHT22;7454;51.256;8.176;2022-12-10T15:10:00;0.00;75.80
14727;DHT22;7454;51.256;8.176;2022-12-10T15:14:59;-0.10;75.80
14727;DHT22;7454;51.256;8.176;2022-12-10T15:17:42;-0.10;75.60
14727;DHT22;7454;51.256;8.176;2022-12-10T15:23:30;-0.10;75.80
14727;DHT22;7454;51.256;8.176;2022-12-10T15:28:35;-0.10;75.90
14727;DHT22;7454;51.256;8.176;2022-12-10T15:31:13;-0.10;75.80
14727;DHT22;7454;51.256;8.176;2022-12-10T15:38:55;-0.10;75.90
14727;DHT22;7454;51.256;8.176;2022-12-10T15:41:24;-0.20;75.70
14727;DHT22;7454;51.256;8.176;2022-12-10T15:43:58;-0.20;75.90
14727;DHT22;7454;51.256;8.176;2022-12-10T15:46:26;-0.20;75.80
14727;DHT22;7454;51.256;8.176;2022-12-10T15:48:52;-0.20;75.80
14727;DHT22;7454;51.256;8.176;2022-12-10T15:51:18;-0.10;75.90
14727;DHT22;7454;51.256;8.176;2022-12-10T15:53:43;-0.10;75.90
14727;DHT22;7454;51.256;8.176;2022-12-10T15:56:09;-0.10;75.80
14727;DHT22;7454;51.256;8.176;2022-12-10T15:58:34;-0.10;75.80
14727;DHT22;7454;51.256;8.176;2022-12-10T16:01:00;-0.10;75.80
14727;DHT22;7454;51.256;8.176;2022-12-10T16:03:27;-0.10;75.90
14727;DHT22;7454;51.256;8.176;2022-12-10T16:05:53;-0.20;75.90
14727;DHT22;7454;51.256;8.176;2022-12-10T16:08:20;-0.20;75.80
14727;DHT22;7454;51.256;8.176;2022-12-10T16:10:48;-0.20;75.80
14727;DHT22;7454;51.256;8.176;2022-12-10T16:13:17;-0.10;76.00
14727;DHT22;7454;51.256;8.176;2022-12-10T16:15:46;-0.10;76.00
14727;DHT22;7454;51.256;8.176;2022-12-10T16:18:14;-0.20;76.00
14727;DHT22;7454;51.256;8.176;2022-12-10T16:20:40;-0.20;75.90
14727;DHT22;7454;51.256;8.176;2022-12-10T16:23:06;-0.10;76.00
14727;DHT22;7454;51.256;8.176;2022-12-10T16:25:32;-0.20;75.90
14727;DHT22;7454;51.256;8.176;2022-12-10T16:27:59;-0.10;76.00
14727;DHT22;7454;51.256;8.176;2022-12-10T16:30:33;-0.10;76.10
14727;DHT22;7454;51.256;8.176;2022-12-10T16:33:01;-0.10;76.10
14727;DHT22;7454;51.256;8.176;2022-12-10T16:35:27;-0.10;76.00
14727;DHT22;7454;51.256;8.176;2022-12-10T16:37:53;0.00;75.90
14727;DHT22;7454;51.256;8.176;2022-12-10T16:40:23;-0.10;75.90
14727;DHT22;7454;51.256;8.176;2022-12-10T16:42:50;-0.10;75.80
14727;DHT22;7454;51.256;8.176;2022-12-10T16:48:05;-0.10;75.90
14727;DHT22;7454;51.256;8.176;2022-12-10T16:50:31;-0.10;75.90
14727;DHT22;7454;51.256;8.176;2022-12-10T16:52:57;-0.10;75.90
14727;DHT22;7454;51.256;8.176;2022-12-10T16:55:24;-0.10;75.90
14727;DHT22;7454;51.256;8.176;2022-12-10T16:57:51;-0.10;75.90
14727;DHT22;7454;51.256;8.176;2022-12-10T17:00:18;-0.10;75.90
14727;DHT22;7454;51.256;8.176;2022-12-10T17:02:47;-0.10;75.90
14727;DHT22;7454;51.256;8.176;2022-12-10T17:05:14;-0.10;75.90
14727;DHT22;7454;51.256;8.176;2022-12-10T17:07:42;-0.10;75.90
14727;DHT22;7454;51.256;8.176;2022-12-10T17:10:08;-0.10;75.90
14727;DHT22;7454;51.256;8.176;2022-12-10T17:12:36;-0.10;75.80
14727;DHT22;7454;51.256;8.176;2022-12-10T17:15:02;-0.20;75.80
14727;DHT22;7454;51.256;8.176;2022-12-10T17:17:28;-0.20;75.90
14727;DHT22;7454;51.256;8.176;2022-12-10T17:19:54;-0.20;75.90
14727;DHT22;7454;51.256;8.176;2022-12-10T17:22:20;-0.20;75.80
14727;DHT22;7454;51.256;8.176;2022-12-10T17:24:46;-0.20;75.70
14727;DHT22;7454;51.256;8.176;2022-12-10T17:27:14;-0.20;75.80
14727;DHT22;7454;51.256;8.176;2022-12-10T17:29:42;-0.20;75.80
14727;DHT22;7454;51.256;8.176;2022-12-10T17:32:18;-0.20;75.90
14727;DHT22;7454;51.256;8.176;2022-12-10T17:34:44;-0.20;76.00
14727;DHT22;7454;51.256;8.176;2022-12-10T17:37:11;-0.10;76.10
14727;DHT22;7454;51.256;8.176;2022-12-10T17:39:37;-0.10;76.10
14727;DHT22;7454;51.256;8.176;2022-12-10T17:42:03;0.00;76.10
14727;DHT22;7454;51.256;8.176;2022-12-10T17:44:29;0.00;76.00
14727;DHT22;7454;51.256;8.176;2022-12-10T17:46:55;0.00;76.10
14727;DHT22;7454;51.256;8.176;2022-12-10T17:49:20;0.00;76.10
14727;DHT22;7454;51.256;8.176;2022-12-10T17:51:46;0.10;76.00
14727;DHT22;7454;51.256;8.176;2022-12-10T17:54:12;0.10;76.00
14727;DHT22;7454;51.256;8.176;2022-12-10T17:56:38;0.10;76.00
14727;DHT22;7454;51.256;8.176;2022-12-10T17:59:04;0.10;76.10
14727;DHT22;7454;51.256;8.176;2022-12-10T18:01:29;0.10;76.00